createdAt,value
2018-09-20T00:01:14.183Z,54.97
2018-09-20T00:03:43.259Z,55.82
2018-09-20T00:06:11.210Z,55.84
2018-09-20T00:08:39.384Z,56.01
2018-09-20T00:11:07.026Z,55.56
2018-09-20T00:13:35.023Z,56.06
2018-09-20T00:16:02.564Z,55.88
2018-09-20T00:18:31.595Z,55.78
2018-09-20T00:20:59.433Z,56.10
2018-09-20T00:23:28.952Z,57.01
2018-09-20T00:25:56.510Z,56.88
2018-09-20T00:28:24.375Z,56.59
2018-09-20T00:30:51.891Z,56.75
2018-09-20T00:33:19.660Z,56.44
2018-09-20T00:35:47.563Z,56.02
2018-09-20T00:38:15.137Z,56.13
2018-09-20T00:40:42.640Z,56.34
2018-09-20T00:43:10.156Z,56.92
2018-09-20T00:45:38.071Z,55.88
2018-09-20T00:48:05.668Z,56.63
2018-09-20T00:50:33.225Z,56.57
2018-09-20T00:53:01.255Z,56.02
2018-09-20T00:55:29.075Z,56.17
2018-09-20T00:57:56.638Z,55.93
2018-09-20T01:00:24.234Z,55.82
2018-09-20T01:02:52.415Z,55.91
2018-09-20T01:05:20.317Z,56.13
2018-09-20T01:07:47.868Z,55.77
2018-09-20T01:10:15.417Z,55.95
2018-09-20T01:12:43.457Z,56.52
2018-09-20T01:15:10.990Z,55.70
2018-09-20T01:17:39.354Z,55.79
2018-09-20T01:20:08.874Z,56.46
2018-09-20T01:22:36.380Z,56.69
2018-09-20T01:25:03.899Z,55.72
2018-09-20T01:27:31.464Z,56.48
2018-09-20T01:29:59.335Z,57.06
2018-09-20T01:32:26.857Z,56.20
2018-09-20T01:34:54.357Z,56.18
2018-09-20T01:37:21.856Z,56.80
2018-09-20T01:39:50.802Z,56.03
2018-09-20T01:42:18.299Z,56.22
2018-09-20T01:44:45.860Z,56.48
2018-09-20T01:47:13.350Z,56.54
2018-09-20T01:49:41.205Z,57.36
2018-09-20T01:52:08.726Z,56.35
2018-09-20T01:54:36.270Z,56.35
2018-09-20T01:57:03.815Z,57.14
2018-09-20T01:59:32.440Z,56.23
2018-09-20T02:02:00.261Z,56.78
2018-09-20T02:04:27.815Z,56.82
2018-09-20T02:06:55.307Z,56.84
2018-09-20T02:09:23.290Z,56.73
2018-09-20T02:11:51.419Z,57.25
2018-09-20T02:14:18.960Z,57.30
2018-09-20T02:16:46.537Z,57.21
2018-09-20T02:19:14.523Z,57.98
2018-09-20T02:21:42.080Z,56.97
2018-09-20T02:24:09.662Z,57.66
2018-09-20T02:26:37.265Z,57.34
2018-09-20T02:29:05.202Z,57.22
2018-09-20T02:31:32.777Z,57.93
2018-09-20T02:34:00.360Z,58.05
2018-09-20T02:36:27.954Z,57.70
2018-09-20T02:38:56.195Z,57.42
2018-09-20T02:41:23.733Z,57.81
2018-09-20T02:43:51.274Z,57.71
2018-09-20T02:46:18.869Z,57.59
2018-09-20T02:48:47.809Z,58.00
2018-09-20T02:51:15.378Z,57.87
2018-09-20T02:53:44.244Z,58.59
2018-09-20T02:56:11.782Z,58.08
2018-09-20T02:58:39.728Z,58.03
2018-09-20T03:01:07.288Z,57.87
2018-09-20T03:03:35.541Z,59.06
2018-09-20T03:06:03.581Z,58.82
2018-09-20T03:08:32.151Z,58.72
2018-09-20T03:10:59.745Z,59.11
2018-09-20T03:13:27.670Z,58.79
2018-09-20T03:15:55.250Z,58.98
2018-09-20T03:18:22.870Z,59.30
2018-09-20T03:20:50.446Z,58.66
2018-09-20T03:23:18.050Z,59.28
2018-09-20T03:25:45.700Z,59.13
2018-09-20T03:28:13.654Z,58.54
2018-09-20T03:30:41.376Z,59.43
2018-09-20T03:33:08.911Z,59.57
2018-09-20T03:35:39.424Z,59.28
2018-09-20T03:38:07.001Z,58.71
2018-09-20T03:40:35.549Z,58.88
2018-09-20T03:43:03.524Z,59.12
2018-09-20T03:45:31.929Z,59.67
2018-09-20T03:47:59.527Z,59.30
2018-09-20T03:50:27.100Z,59.65
2018-09-20T03:52:55.027Z,58.75
2018-09-20T03:55:23.277Z,58.91
2018-09-20T03:57:50.924Z,59.81
2018-09-20T04:00:18.939Z,59.23
2018-09-20T04:02:46.518Z,59.82
2018-09-20T04:05:14.103Z,59.25
2018-09-20T04:07:41.703Z,59.43
2018-09-20T04:10:09.597Z,59.77
2018-09-20T04:12:37.219Z,59.49
2018-09-20T04:15:05.840Z,60.06
2018-09-20T04:17:33.455Z,59.58
2018-09-20T04:20:01.391Z,60.04
2018-09-20T04:22:28.989Z,59.58
2018-09-20T04:24:56.628Z,59.58
2018-09-20T04:27:24.592Z,60.17
2018-09-20T04:29:52.179Z,60.25
2018-09-20T04:32:19.766Z,59.91
2018-09-20T04:34:47.781Z,59.63
2018-09-20T04:37:15.390Z,59.64
2018-09-20T04:39:42.963Z,59.72
2018-09-20T04:42:11.378Z,60.02
2018-09-20T04:44:38.966Z,59.79
2018-09-20T04:47:06.512Z,59.65
2018-09-20T04:49:34.718Z,60.55
2018-09-20T04:52:02.719Z,60.74
2018-09-20T04:54:30.298Z,60.07
2018-09-20T04:56:58.257Z,60.89
2018-09-20T04:59:26.771Z,60.44
2018-09-20T05:01:56.688Z,61.20
2018-09-20T05:04:24.720Z,61.23
2018-09-20T05:06:52.557Z,61.21
2018-09-20T05:09:20.172Z,60.80
2018-09-20T05:11:48.143Z,60.73
2018-09-20T05:14:15.698Z,61.00
2018-09-20T05:16:43.388Z,61.40
2018-09-20T05:19:11.446Z,61.61
2018-09-20T05:21:39.255Z,61.19
2018-09-20T05:24:07.391Z,61.02
2018-09-20T05:26:35.402Z,61.02
2018-09-20T05:29:03.240Z,61.60
2018-09-20T05:31:30.807Z,61.20
2018-09-20T05:33:59.801Z,61.01
2018-09-20T05:36:27.601Z,61.15
2018-09-20T05:38:55.154Z,61.69
2018-09-20T05:41:23.068Z,60.96
2018-09-20T05:43:50.655Z,61.45
2018-09-20T05:46:18.393Z,61.61
2018-09-20T05:48:46.359Z,61.17
2018-09-20T05:51:13.943Z,60.63
2018-09-20T05:53:41.497Z,60.67
2018-09-20T05:56:09.396Z,60.47
2018-09-20T05:58:36.964Z,61.00
2018-09-20T06:01:04.518Z,60.50
2018-09-20T06:03:32.045Z,61.00
2018-09-20T06:05:59.681Z,60.71
2018-09-20T06:08:27.646Z,60.82
2018-09-20T06:10:55.189Z,61.14
2018-09-20T06:13:22.780Z,60.44
2018-09-20T06:15:50.847Z,60.40
2018-09-20T06:18:18.407Z,60.81
2018-09-20T06:20:48.715Z,60.89
2018-09-20T06:23:16.770Z,60.15
2018-09-20T06:25:44.539Z,60.15
2018-09-20T06:28:12.118Z,60.78
2018-09-20T06:30:40.061Z,59.95
2018-09-20T06:33:07.626Z,60.03
2018-09-20T06:35:37.565Z,60.10
2018-09-20T06:38:05.496Z,59.98
2018-09-20T06:40:33.065Z,59.97
2018-09-20T06:43:01.132Z,59.59
2018-09-20T06:45:29.697Z,59.71
2018-09-20T06:47:57.254Z,60.03
2018-09-20T06:50:25.377Z,59.47
2018-09-20T06:52:53.370Z,59.73
2018-09-20T06:55:20.949Z,59.86
2018-09-20T06:57:48.569Z,58.92
2018-09-20T07:00:16.626Z,58.66
2018-09-20T07:02:44.234Z,59.61
2018-09-20T07:05:11.818Z,58.59
2018-09-20T07:07:39.669Z,59.12
2018-09-20T07:10:07.249Z,58.79
2018-09-20T07:12:34.808Z,58.35
2018-09-20T07:15:02.817Z,58.26
2018-09-20T07:17:30.409Z,58.19
2018-09-20T07:19:58.525Z,57.36
2018-09-20T07:22:26.415Z,57.61
2018-09-20T07:24:55.999Z,57.64
2018-09-20T07:27:24.090Z,56.41
2018-09-20T07:29:52.012Z,56.88
2018-09-20T07:32:19.556Z,57.05
2018-09-20T07:34:47.108Z,56.24
2018-09-20T07:37:17.025Z,55.99
2018-09-20T07:39:44.597Z,56.55
2018-09-20T07:42:13.086Z,56.55
2018-09-20T07:44:41.911Z,55.97
2018-09-20T07:47:09.499Z,54.90
2018-09-20T07:49:37.075Z,55.03
2018-09-20T07:52:08.069Z,55.43
2018-09-20T07:54:35.625Z,55.46
2018-09-20T07:57:03.206Z,55.29
2018-09-20T07:59:31.248Z,54.27
2018-09-20T08:01:58.829Z,54.65
2018-09-20T08:04:27.330Z,54.15
2018-09-20T08:06:55.329Z,54.43
2018-09-20T08:09:22.895Z,54.54
2018-09-20T08:11:50.425Z,53.62
2018-09-20T08:14:19.115Z,53.25
2018-09-20T08:16:46.703Z,53.89
2018-09-20T08:19:14.223Z,53.06
2018-09-20T08:21:42.988Z,53.58
2018-09-20T08:24:10.505Z,53.13
2018-09-20T08:26:39.571Z,53.20
2018-09-20T08:29:07.573Z,52.98
2018-09-20T08:31:36.193Z,52.05
2018-09-20T08:34:03.779Z,52.18
2018-09-20T08:36:31.682Z,51.35
2018-09-20T08:38:59.550Z,51.93
2018-09-20T08:41:28.275Z,51.11
2018-09-20T08:43:57.171Z,51.05
2018-09-20T08:46:24.746Z,50.62
2018-09-20T08:48:52.301Z,50.79
2018-09-20T08:51:20.224Z,50.50
2018-09-20T08:53:48.401Z,50.93
2018-09-20T08:56:15.979Z,50.54
2018-09-20T08:58:43.983Z,50.53
2018-09-20T09:01:11.552Z,50.33
2018-09-20T09:03:39.662Z,49.77
2018-09-20T09:06:07.670Z,50.48
2018-09-20T09:08:37.083Z,50.56
2018-09-20T09:11:05.243Z,49.63
2018-09-20T09:13:33.161Z,49.75
2018-09-20T09:16:00.714Z,48.64
2018-09-20T09:18:28.306Z,48.33
2018-09-20T09:20:56.224Z,48.66
2018-09-20T09:23:24.780Z,48.33
2018-09-20T09:25:53.728Z,48.37
2018-09-20T09:28:22.824Z,47.26
2018-09-20T09:30:50.526Z,47.03
2018-09-20T09:33:18.148Z,47.63
2018-09-20T09:35:45.989Z,47.45
2018-09-20T09:38:13.595Z,46.54
2018-09-20T09:40:41.190Z,46.64
2018-09-20T09:43:10.698Z,45.77
2018-09-20T09:45:39.646Z,45.45
2018-09-20T09:48:07.584Z,43.76
2018-09-20T09:50:35.606Z,44.26
2018-09-20T09:53:03.204Z,43.66
2018-09-20T09:55:30.799Z,44.04
2018-09-20T09:57:59.344Z,43.74
2018-09-20T10:00:33.062Z,43.60
2018-09-20T10:03:00.812Z,43.60
2018-09-20T10:05:29.625Z,42.34
2018-09-20T10:07:57.203Z,41.03
2018-09-20T10:10:24.993Z,41.89
2018-09-20T10:12:52.897Z,41.36
2018-09-20T10:15:20.470Z,41.22
2018-09-20T10:17:48.787Z,40.08
2018-09-20T10:20:17.216Z,40.56
2018-09-20T10:22:44.754Z,39.37
2018-09-20T10:25:12.273Z,39.01
2018-09-20T10:27:40.197Z,39.11
2018-09-20T10:30:07.935Z,39.43
2018-09-20T10:32:35.583Z,39.58
2018-09-20T10:35:05.723Z,38.89
2018-09-20T10:37:33.379Z,39.17
2018-09-20T10:40:01.249Z,38.03
2018-09-20T10:42:28.841Z,36.17
2018-09-20T10:44:57.036Z,35.32
2018-09-20T10:47:24.951Z,34.83
2018-09-20T10:49:52.489Z,35.01
2018-09-20T10:52:20.286Z,35.00
2018-09-20T10:54:48.871Z,34.29
2018-09-20T10:57:16.410Z,34.84
2018-09-20T10:59:43.931Z,34.96
2018-09-20T11:02:12.868Z,34.72
2018-09-20T11:04:40.934Z,35.38
2018-09-20T11:07:08.562Z,34.89
2018-09-20T11:09:37.356Z,33.71
2018-09-20T11:12:05.849Z,33.76
2018-09-20T11:14:33.582Z,34.96
2018-09-20T11:17:01.630Z,34.69
2018-09-20T11:19:33.779Z,34.95
2018-09-20T11:22:02.453Z,35.63
2018-09-20T11:24:30.433Z,34.77
2018-09-20T11:26:58.858Z,34.06
2018-09-20T11:29:26.378Z,34.40
2018-09-20T11:31:56.298Z,33.55
2018-09-20T11:34:23.869Z,34.75
2018-09-20T11:36:51.439Z,34.94
2018-09-20T11:39:19.370Z,36.28
2018-09-20T11:41:46.930Z,36.53
2018-09-20T11:44:14.524Z,36.92
2018-09-20T11:46:43.309Z,36.67
2018-09-20T11:49:11.037Z,35.41
2018-09-20T11:51:38.618Z,34.58
2018-09-20T11:54:07.427Z,33.69
2018-09-20T11:56:34.994Z,32.28
2018-09-20T11:59:02.534Z,31.66
2018-09-20T12:01:30.507Z,31.46
2018-09-20T12:03:58.346Z,31.81
2018-09-20T12:06:25.946Z,30.45
2018-09-20T12:08:58.341Z,30.83
2018-09-20T12:11:26.877Z,29.97
2018-09-20T12:13:54.471Z,29.87
2018-09-20T12:16:22.674Z,30.08
2018-09-20T12:18:50.272Z,30.47
2018-09-20T12:21:18.700Z,29.90
2018-09-20T12:23:47.254Z,29.35
2018-09-20T12:26:14.860Z,29.02
2018-09-20T12:28:42.405Z,29.18
2018-09-20T12:31:11.322Z,29.86
2018-09-20T12:33:40.569Z,29.48
2018-09-20T12:36:10.074Z,30.36
2018-09-20T12:38:39.786Z,29.28
2018-09-20T12:41:08.437Z,29.10
2018-09-20T12:43:37.368Z,28.72
2018-09-20T12:46:05.274Z,29.49
2018-09-20T12:48:37.531Z,30.25
2018-09-20T12:51:06.576Z,31.96
2018-09-20T12:53:37.022Z,32.91
2018-09-20T12:56:06.797Z,33.21
2018-09-20T12:58:39.457Z,33.66
2018-09-20T13:01:08.479Z,34.20
2018-09-20T13:03:37.542Z,34.98
2018-09-20T13:06:05.402Z,34.63
2018-09-20T13:08:34.336Z,35.54
2018-09-20T13:11:01.883Z,35.02
2018-09-20T13:13:29.542Z,35.08
2018-09-20T13:15:58.454Z,35.20
2018-09-20T13:18:27.414Z,36.13
2018-09-20T13:20:55.636Z,36.23
2018-09-20T13:23:23.527Z,35.36
2018-09-20T13:25:52.657Z,35.19
2018-09-20T13:28:21.811Z,36.41
2018-09-20T13:30:50.325Z,35.67
2018-09-20T13:33:18.476Z,35.35
2018-09-20T13:35:46.026Z,36.22
2018-09-20T13:38:13.926Z,35.80
2018-09-20T13:40:41.646Z,35.03
2018-09-20T13:43:10.186Z,35.04
2018-09-20T13:45:39.217Z,34.84
2018-09-20T13:48:07.633Z,34.87
2018-09-20T13:50:35.197Z,35.56
2018-09-20T13:53:03.095Z,34.84
2018-09-20T13:55:30.710Z,35.87
2018-09-20T13:57:58.678Z,34.77
2018-09-20T14:00:26.735Z,34.74
2018-09-20T14:02:54.360Z,34.56
2018-09-20T14:05:21.913Z,35.27
2018-09-20T14:07:49.883Z,35.69
2018-09-20T14:10:17.521Z,35.38
2018-09-20T14:12:45.623Z,34.45
2018-09-20T14:15:13.507Z,35.33
2018-09-20T14:17:44.961Z,34.40
2018-09-20T14:20:12.634Z,34.36
2018-09-20T14:22:41.126Z,34.33
2018-09-20T14:25:09.064Z,34.23
2018-09-20T14:27:36.638Z,33.98
2018-09-20T14:30:14.398Z,34.13
2018-09-20T14:32:41.935Z,33.92
2018-09-20T14:35:10.451Z,34.62
2018-09-20T14:37:39.606Z,33.71
2018-09-20T14:40:08.981Z,34.21
2018-09-20T14:42:38.057Z,33.38
2018-09-20T14:45:07.962Z,33.41
2018-09-20T14:47:36.466Z,33.31
2018-09-20T14:50:04.332Z,34.35
2018-09-20T14:52:33.652Z,33.38
2018-09-20T14:55:01.205Z,33.42
2018-09-20T14:57:28.709Z,33.99
2018-09-20T14:59:59.464Z,33.41
2018-09-20T15:02:27.137Z,33.93
2018-09-20T15:04:54.741Z,33.62
2018-09-20T15:07:24.209Z,33.46
2018-09-20T15:09:51.766Z,32.47
2018-09-20T15:12:19.350Z,33.01
2018-09-20T15:14:54.074Z,32.76
2018-09-20T15:17:21.629Z,32.55
2018-09-20T15:19:49.195Z,31.66
2018-09-20T15:22:24.103Z,32.03
2018-09-20T15:24:51.655Z,31.79
2018-09-20T15:27:19.192Z,31.02
2018-09-20T15:29:51.273Z,30.96
2018-09-20T15:32:19.640Z,31.91
2018-09-20T15:34:48.414Z,31.25
2018-09-20T15:37:17.508Z,32.04
2018-09-20T15:39:46.352Z,31.71
2018-09-20T15:42:14.332Z,31.46
2018-09-20T15:44:42.710Z,31.77
2018-09-20T15:47:10.791Z,31.59
2018-09-20T15:49:39.581Z,32.33
2018-09-20T15:52:09.495Z,32.55
2018-09-20T15:54:37.125Z,32.97
2018-09-20T15:57:04.657Z,32.51
2018-09-20T15:59:32.654Z,32.84
2018-09-20T16:02:00.200Z,33.26
2018-09-20T16:04:27.810Z,33.34
2018-09-20T16:06:59.485Z,33.65
2018-09-20T16:09:27.050Z,33.52
2018-09-20T16:11:55.082Z,34.73
2018-09-20T16:14:23.371Z,34.94
2018-09-20T16:16:50.953Z,35.01
2018-09-20T16:19:19.549Z,34.42
2018-09-20T16:21:48.267Z,34.47
2018-09-20T16:24:16.673Z,34.37
2018-09-20T16:26:44.718Z,34.69
2018-09-20T16:29:13.240Z,34.76
2018-09-20T16:31:40.842Z,35.19
2018-09-20T16:34:08.977Z,34.97
2018-09-20T16:36:36.988Z,35.07
2018-09-20T16:39:05.519Z,35.30
2018-09-20T16:41:33.700Z,35.27
2018-09-20T16:44:01.392Z,35.38
2018-09-20T16:46:28.960Z,35.79
2018-09-20T16:48:56.942Z,36.39
2018-09-20T16:51:24.465Z,35.75
2018-09-20T16:53:52.067Z,36.26
2018-09-20T16:56:20.748Z,36.03
2018-09-20T16:58:50.668Z,36.27
2018-09-20T17:01:18.324Z,36.29
2018-09-20T17:03:47.358Z,36.42
2018-09-20T17:06:14.991Z,36.63
2018-09-20T17:08:42.536Z,37.33
2018-09-20T17:11:11.015Z,37.05
2018-09-20T17:13:38.568Z,37.84
2018-09-20T17:16:06.972Z,37.76
2018-09-20T17:18:35.019Z,38.13
2018-09-20T17:21:03.574Z,38.26
2018-09-20T17:23:31.162Z,38.06
2018-09-20T17:26:00.576Z,38.70
2018-09-20T17:28:29.442Z,38.12
2018-09-20T17:30:57.842Z,38.16
2018-09-20T17:33:58.960Z,38.31
2018-09-20T17:36:27.720Z,38.64
2018-09-20T17:38:55.471Z,39.15
2018-09-20T17:41:26.472Z,38.70
2018-09-20T17:43:56.044Z,38.70
2018-09-20T17:46:24.225Z,39.55
2018-09-20T17:48:54.143Z,39.66
2018-09-20T17:51:21.797Z,39.89
2018-09-20T17:53:49.378Z,40.37
2018-09-20T17:56:17.309Z,39.76
2018-09-20T17:58:45.219Z,39.65
2018-09-20T18:01:13.445Z,39.88
2018-09-20T18:03:44.251Z,40.03
2018-09-20T18:06:11.774Z,40.34
2018-09-20T18:08:39.370Z,40.13
2018-09-20T18:11:09.327Z,41.04
2018-09-20T18:13:36.895Z,40.49
2018-09-20T18:16:04.458Z,41.24
2018-09-20T18:18:32.412Z,40.65
2018-09-20T18:21:04.823Z,41.31
2018-09-20T18:23:35.233Z,40.66
2018-09-20T18:26:03.211Z,41.46
2018-09-20T18:28:31.763Z,40.91
2018-09-20T18:31:00.818Z,41.07
2018-09-20T18:33:31.820Z,41.30
2018-09-20T18:35:59.414Z,41.62
2018-09-20T18:38:26.942Z,41.46
2018-09-20T18:40:58.577Z,41.37
2018-09-20T18:43:27.674Z,41.37
2018-09-20T18:45:55.275Z,41.99
2018-09-20T18:48:26.434Z,41.49
2018-09-20T18:50:54.794Z,41.46
2018-09-20T18:53:23.430Z,41.46
2018-09-20T18:55:52.269Z,41.38
2018-09-20T18:58:20.769Z,41.98
2018-09-20T19:00:48.830Z,42.31
2018-09-20T19:03:19.954Z,42.50
2018-09-20T19:05:47.551Z,42.66
2018-09-20T19:08:16.136Z,42.85
2018-09-20T19:10:46.649Z,42.39
2018-09-20T19:13:17.330Z,42.52
2018-09-20T19:15:45.335Z,43.33
2018-09-20T19:18:14.085Z,43.25
2018-09-20T19:20:41.754Z,43.44
2018-09-20T19:23:10.346Z,42.96
2018-09-20T19:25:37.966Z,43.56
2018-09-20T19:28:06.546Z,43.71
2018-09-20T19:30:34.510Z,43.07
2018-09-20T19:33:02.726Z,43.94
2018-09-20T19:35:32.311Z,43.86
2018-09-20T19:38:01.137Z,43.62
2018-09-20T19:40:29.534Z,43.67
2018-09-20T19:42:57.121Z,43.19
2018-09-20T19:45:25.191Z,43.22
2018-09-20T19:47:55.826Z,43.21
2018-09-20T19:50:27.635Z,43.38
2018-09-20T19:52:55.643Z,43.40
2018-09-20T19:55:23.284Z,43.31
2018-09-20T19:57:51.432Z,44.19
2018-09-20T20:00:19.549Z,43.29
2018-09-20T20:05:26.489Z,43.81
2018-09-20T20:07:54.142Z,44.17
2018-09-20T20:10:21.730Z,43.39
2018-09-20T20:12:54.527Z,43.54
2018-09-20T20:15:23.283Z,43.25
2018-09-20T20:17:51.508Z,43.17
2018-09-20T20:20:20.371Z,42.79
2018-09-20T20:22:47.952Z,42.67
2018-09-20T20:25:18.499Z,42.50
2018-09-20T20:27:46.492Z,42.74
2018-09-20T20:30:14.139Z,42.30
2018-09-20T20:32:41.777Z,41.99
2018-09-20T20:35:09.710Z,42.52
2018-09-20T20:37:37.332Z,41.69
2018-09-20T20:40:04.903Z,41.43
2018-09-20T20:42:33.618Z,41.42
2018-09-20T20:45:02.071Z,42.14
2018-09-20T20:47:29.674Z,41.58
2018-09-20T20:49:57.510Z,42.23
2018-09-20T20:52:25.197Z,41.67
2018-09-20T20:54:53.677Z,42.07
2018-09-20T20:57:21.573Z,42.32
2018-09-20T20:59:49.085Z,41.54
2018-09-20T21:02:16.668Z,42.07
2018-09-20T21:04:48.633Z,41.47
2018-09-20T21:07:16.224Z,42.19
2018-09-20T21:09:45.440Z,42.41
2018-09-20T21:12:16.351Z,42.30
2018-09-20T21:14:44.717Z,42.13
2018-09-20T21:17:12.381Z,41.80
2018-09-20T21:19:40.964Z,42.48
2018-09-20T21:22:08.683Z,42.63
2018-09-20T21:24:36.509Z,42.23
2018-09-20T21:27:05.279Z,42.93
2018-09-20T21:29:33.621Z,43.15
2018-09-20T21:32:02.177Z,43.22
2018-09-20T21:34:33.215Z,42.58
2018-09-20T21:37:01.028Z,43.13
2018-09-20T21:39:29.533Z,42.87
2018-09-20T21:42:04.605Z,43.08
2018-09-20T21:44:36.769Z,42.80
2018-09-20T21:47:04.331Z,43.82
2018-09-20T21:49:37.723Z,43.83
2018-09-20T21:52:05.323Z,43.24
2018-09-20T21:54:36.586Z,43.94
2018-09-20T21:57:04.517Z,43.39
2018-09-20T21:59:33.215Z,43.40
2018-09-20T22:02:02.946Z,44.28
2018-09-20T22:04:31.659Z,43.87
2018-09-20T22:06:59.884Z,44.24
2018-09-20T22:09:27.473Z,43.65
2018-09-20T22:12:01.298Z,44.32
2018-09-20T22:14:30.278Z,43.50
2018-09-20T22:16:57.841Z,44.20
2018-09-20T22:19:25.815Z,43.65
2018-09-20T22:21:54.328Z,44.14
2018-09-20T22:24:21.926Z,44.46
2018-09-20T22:26:49.922Z,43.75
2018-09-20T22:29:17.525Z,43.89
2018-09-20T22:31:45.755Z,44.51
2018-09-20T22:34:14.924Z,44.60
2018-09-20T22:36:42.524Z,43.85
2018-09-20T22:39:10.990Z,44.48
2018-09-20T22:41:38.845Z,44.40
2018-09-20T22:44:09.410Z,44.87
2018-09-20T22:46:36.987Z,44.64
2018-09-20T22:49:05.940Z,44.23
2018-09-20T22:51:33.478Z,44.69
2018-09-20T22:54:01.037Z,44.78
2018-09-20T22:56:28.575Z,44.88
2018-09-20T22:58:56.539Z,44.92
2018-09-20T23:01:24.106Z,44.61
2018-09-20T23:03:51.647Z,45.01
2018-09-20T23:06:19.558Z,44.71
2018-09-20T23:08:47.070Z,45.52
2018-09-20T23:11:15.263Z,45.27
2018-09-20T23:13:43.611Z,45.54
2018-09-20T23:16:11.526Z,44.92
2018-09-20T23:18:39.246Z,45.32
2018-09-20T23:21:07.401Z,45.03
2018-09-20T23:23:34.998Z,45.36
2018-09-20T23:26:07.741Z,46.11
2018-09-20T23:28:35.547Z,45.80
2018-09-20T23:31:03.095Z,45.94
2018-09-20T23:33:30.676Z,46.02
2018-09-20T23:35:58.323Z,46.27
2018-09-20T23:38:28.162Z,46.30
2018-09-20T23:40:55.698Z,46.32
2018-09-20T23:43:23.314Z,45.80
2018-09-20T23:45:51.266Z,46.07
2018-09-20T23:48:18.850Z,46.86
2018-09-20T23:50:46.423Z,46.80
2018-09-20T23:53:14.516Z,46.33
2018-09-20T23:55:42.043Z,47.25
2018-09-20T23:58:10.363Z,46.94
